Time;durP1;ratioP1;P1;durP2;ratioP2;P2;SDS_P1;SDS_P2;PMS_P1;PMS_P2;Temp;Humidity;BMP_temperature;BMP_pressure;BME280_temperature;BME280_humidity;BME280_pressure;Samples;Min_cycle;Max_cycle;Signal;HPM_P1;HPM_P2
2022/11/13 00:02:22;;;;;;;;;;;20.80;99.90;;;;;;5069638;28;19961;-74
2022/11/13 00:04:48;;;;;;;;;;;20.90;99.90;;;;;;5069636;28;19988;-75
2022/11/13 00:07:15;;;;;;;;;;;20.90;99.90;;;;;;5070174;28;19913;-72
2022/11/13 00:09:42;;;;;;;;;;;21.10;99.90;;;;;;5066246;28;19932;-74
2022/11/13 00:12:08;;;;;;;;;;;21.10;99.90;;;;;;5073222;28;20259;-74
2022/11/13 00:14:35;;;;;;;;;;;21.10;99.90;;;;;;5071836;28;19920;-74
2022/11/13 00:17:01;;;;;;;;;;;21.20;99.90;;;;;;5067999;28;19935;-75
2022/11/13 00:19:28;;;;;;;;;;;21.30;99.90;;;;;;5069390;28;20030;-75
2022/11/13 00:21:56;;;;;;;;;;;21.20;99.90;;;;;;5073424;28;19924;-75
2022/11/13 00:24:22;;;;;;;;;;;21.20;99.90;;;;;;5072311;28;19920;-74
2022/11/13 00:26:49;;;;;;;;;;;21.30;99.90;;;;;;5066465;28;20358;-74
2022/11/13 00:29:16;;;;;;;;;;;21.40;99.90;;;;;;5073606;28;19908;-74
2022/11/13 00:31:42;;;;;;;;;;;21.40;99.90;;;;;;5066473;28;19916;-75
2022/11/13 00:34:09;;;;;;;;;;;21.30;99.90;;;;;;5072366;28;19957;-76
2022/11/13 00:36:36;;;;;;;;;;;21.20;99.90;;;;;;5069641;28;19913;-74
2022/11/13 00:39:03;;;;;;;;;;;21.20;99.90;;;;;;5067701;28;19916;-77
2022/11/13 00:41:29;;;;;;;;;;;21.10;99.90;;;;;;5066479;28;19931;-75
2022/11/13 00:43:56;;;;;;;;;;;21.10;99.90;;;;;;5073492;28;19920;-75
2022/11/13 00:46:23;;;;;;;;;;;21.10;99.90;;;;;;5071346;28;20533;-77
2022/11/13 00:48:49;;;;;;;;;;;21.00;99.90;;;;;;5070313;28;19913;-77
2022/11/13 00:51:18;;;;;;;;;;;20.90;99.90;;;;;;5066863;28;19916;-76
2022/11/13 00:53:48;;;;;;;;;;;20.70;99.90;;;;;;5063515;28;19913;-76
2022/11/13 00:56:15;;;;;;;;;;;20.70;99.90;;;;;;5068360;28;19913;-76
2022/11/13 00:58:41;;;;;;;;;;;20.70;99.90;;;;;;5070885;28;19928;-78
2022/11/13 01:01:09;;;;;;;;;;;20.60;99.90;;;;;;5068796;28;19924;-76
2022/11/13 01:03:36;;;;;;;;;;;20.70;99.90;;;;;;5073526;28;20336;-77
2022/11/13 01:06:14;;;;;;;;;;;20.80;99.90;;;;;;5070977;28;19912;-79
2022/11/13 01:08:40;;;;;;;;;;;20.90;99.90;;;;;;5067782;28;19920;-75
2022/11/13 01:11:18;;;;;;;;;;;21.20;99.90;;;;;;5075073;28;19927;-77
2022/11/13 01:13:46;;;;;;;;;;;21.50;99.90;;;;;;5055842;28;19985;-76
2022/11/13 01:16:13;;;;;;;;;;;21.80;99.90;;;;;;5068497;28;19917;-76
2022/11/13 01:18:41;;;;;;;;;;;22.10;99.90;;;;;;5064020;28;19923;-73
2022/11/13 01:21:10;;;;;;;;;;;22.50;99.90;;;;;;5074457;28;19924;-75
2022/11/13 01:23:36;;;;;;;;;;;22.80;99.90;;;;;;5074157;28;19915;-73
2022/11/13 01:26:08;;;;;;;;;;;23.10;99.90;;;;;;5067295;28;19927;-74
2022/11/13 01:28:35;;;;;;;;;;;23.30;99.90;;;;;;5068655;28;20275;-74
2022/11/13 01:31:04;;;;;;;;;;;23.80;99.90;;;;;;5066453;28;19936;-73
2022/11/13 01:33:30;;;;;;;;;;;24.30;99.90;;;;;;5069464;28;19958;-78
2022/11/13 01:36:01;;;;;;;;;;;24.80;99.90;;;;;;5067099;28;20004;-77
2022/11/13 01:38:28;;;;;;;;;;;25.20;99.90;;;;;;5069132;28;19994;-76
2022/11/13 01:40:55;;;;;;;;;;;25.60;99.90;;;;;;5070256;28;20481;-76
2022/11/13 01:43:26;;;;;;;;;;;26.30;99.90;;;;;;5068294;28;19917;-76
2022/11/13 01:45:58;;;;;;;;;;;26.90;99.90;;;;;;5070889;28;19940;-74
2022/11/13 01:48:33;;;;;;;;;;;27.10;99.90;;;;;;5073055;28;19918;-75
2022/11/13 01:51:00;;;;;;;;;;;27.00;99.90;;;;;;5070243;28;19916;-74
2022/11/13 01:53:27;;;;;;;;;;;27.10;99.90;;;;;;5068402;28;20019;-77
2022/11/13 01:55:54;;;;;;;;;;;27.10;99.90;;;;;;5071073;28;19912;-73
2022/11/13 01:58:20;;;;;;;;;;;27.10;99.90;;;;;;5065555;28;20705;-74
2022/11/13 02:00:47;;;;;;;;;;;27.10;99.90;;;;;;5069133;28;19928;-75
2022/11/13 02:03:14;;;;;;;;;;;26.90;99.90;;;;;;5069012;28;19917;-74
2022/11/13 02:05:40;;;;;;;;;;;26.90;99.90;;;;;;5067706;28;20472;-75
2022/11/13 02:08:07;;;;;;;;;;;26.90;99.90;;;;;;5069541;28;19943;-74
2022/11/13 02:10:34;;;;;;;;;;;26.90;99.90;;;;;;5070421;28;20019;-75
2022/11/13 02:13:01;;;;;;;;;;;26.70;99.90;;;;;;5071168;28;19912;-75
2022/11/13 02:15:28;;;;;;;;;;;26.90;99.90;;;;;;5069660;28;19923;-78
2022/11/13 02:17:56;;;;;;;;;;;27.10;99.90;;;;;;5069392;28;19912;-75
2022/11/13 02:20:27;;;;;;;;;;;27.40;99.90;;;;;;5068877;28;20011;-76
2022/11/13 02:23:01;;;;;;;;;;;27.50;99.90;;;;;;5070514;28;20378;-76
2022/11/13 02:25:29;;;;;;;;;;;27.90;99.90;;;;;;5068890;28;20416;-74
2022/11/13 02:27:56;;;;;;;;;;;27.90;99.90;;;;;;5069862;28;20384;-77
2022/11/13 02:30:24;;;;;;;;;;;27.80;99.90;;;;;;5069090;28;19917;-74
2022/11/13 02:32:52;;;;;;;;;;;27.70;99.90;;;;;;5070513;28;19995;-74
2022/11/13 02:35:22;;;;;;;;;;;27.70;99.90;;;;;;5069712;28;19916;-75
2022/11/13 02:37:48;;;;;;;;;;;28.00;99.90;;;;;;5062669;28;19982;-80
2022/11/13 02:40:16;;;;;;;;;;;28.30;99.90;;;;;;5063741;28;19924;-81
2022/11/13 02:42:42;;;;;;;;;;;28.40;99.90;;;;;;5070457;28;20470;-81
2022/11/13 02:45:09;;;;;;;;;;;28.30;99.90;;;;;;5069006;28;19913;-76
2022/11/13 02:47:36;;;;;;;;;;;28.30;99.90;;;;;;5070461;28;19920;-75
2022/11/13 02:50:03;;;;;;;;;;;28.40;99.90;;;;;;5067142;28;19921;-77
2022/11/13 02:52:30;;;;;;;;;;;28.50;99.90;;;;;;5069376;28;19920;-79
2022/11/13 02:54:57;;;;;;;;;;;28.40;99.90;;;;;;5068203;28;19924;-75
2022/11/13 02:57:24;;;;;;;;;;;28.10;99.90;;;;;;5067972;28;19920;-78
2022/11/13 02:59:50;;;;;;;;;;;27.90;99.90;;;;;;5067605;28;19985;-76
2022/11/13 03:02:17;;;;;;;;;;;27.70;99.90;;;;;;5067114;28;19971;-75
2022/11/13 03:04:45;;;;;;;;;;;27.50;99.90;;;;;;5068732;28;20283;-75
2022/11/13 03:07:12;;;;;;;;;;;27.30;99.90;;;;;;5070093;28;19916;-76
2022/11/13 03:09:41;;;;;;;;;;;27.10;99.90;;;;;;5066729;28;19928;-74
2022/11/13 03:12:08;;;;;;;;;;;27.00;99.90;;;;;;5070331;28;19912;-74
2022/11/13 03:14:35;;;;;;;;;;;26.90;99.90;;;;;;5061780;28;19917;-74
2022/11/13 03:17:02;;;;;;;;;;;27.40;99.90;;;;;;5061743;28;19928;-76
2022/11/13 03:19:29;;;;;;;;;;;28.00;99.90;;;;;;5060607;28;19912;-74
2022/11/13 03:21:55;;;;;;;;;;;28.30;99.90;;;;;;5068480;28;20387;-76
2022/11/13 03:24:22;;;;;;;;;;;28.20;99.90;;;;;;5069964;28;19913;-76
2022/11/13 03:26:49;;;;;;;;;;;27.80;99.90;;;;;;5070890;28;19919;-75
2022/11/13 03:29:15;;;;;;;;;;;27.40;99.90;;;;;;5063262;28;20282;-76
2022/11/13 03:31:42;;;;;;;;;;;27.40;99.90;;;;;;5066881;28;20372;-76
2022/11/13 03:34:09;;;;;;;;;;;27.30;99.90;;;;;;5063924;28;19916;-76
2022/11/13 03:36:35;;;;;;;;;;;27.30;99.90;;;;;;5064819;28;19912;-76
2022/11/13 03:39:02;;;;;;;;;;;27.20;99.90;;;;;;5058138;28;19920;-74
2022/11/13 03:41:29;;;;;;;;;;;27.10;99.90;;;;;;5066387;28;19920;-74
2022/11/13 03:43:56;;;;;;;;;;;27.10;99.90;;;;;;5063166;28;19964;-75
2022/11/13 03:46:22;;;;;;;;;;;27.00;99.90;;;;;;5065163;28;19924;-77
2022/11/13 03:48:49;;;;;;;;;;;27.00;99.90;;;;;;5067084;28;19962;-81
2022/11/13 03:51:16;;;;;;;;;;;26.80;99.90;;;;;;5066391;28;19922;-77
2022/11/13 03:53:42;;;;;;;;;;;26.80;99.90;;;;;;5062332;28;19970;-76
2022/11/13 03:56:09;;;;;;;;;;;26.80;99.90;;;;;;5067418;28;20320;-76
2022/11/13 03:58:36;;;;;;;;;;;26.80;99.90;;;;;;5058458;28;20290;-76
2022/11/13 04:01:03;;;;;;;;;;;26.80;99.90;;;;;;5062072;28;20383;-77
2022/11/13 04:03:29;;;;;;;;;;;26.70;99.90;;;;;;5064860;28;19996;-75
2022/11/13 04:05:56;;;;;;;;;;;26.70;99.90;;;;;;5066041;28;19912;-75
2022/11/13 04:08:23;;;;;;;;;;;26.70;99.90;;;;;;5067239;28;19927;-74
2022/11/13 04:10:49;;;;;;;;;;;26.80;99.90;;;;;;5068255;28;20442;-71
2022/11/13 04:13:16;;;;;;;;;;;27.00;99.90;;;;;;5065672;28;19913;-76
2022/11/13 04:15:43;;;;;;;;;;;27.20;99.90;;;;;;5068451;28;19935;-74
2022/11/13 04:18:09;;;;;;;;;;;27.10;99.90;;;;;;5063048;28;19924;-75
2022/11/13 04:20:36;;;;;;;;;;;27.00;99.90;;;;;;5063859;28;20325;-76
2022/11/13 04:23:11;;;;;;;;;;;26.90;99.90;;;;;;5067946;28;19966;-76
2022/11/13 04:25:37;;;;;;;;;;;27.00;99.90;;;;;;5065709;28;20054;-77
2022/11/13 04:28:04;;;;;;;;;;;27.00;99.90;;;;;;5066304;28;19940;-74
2022/11/13 04:30:31;;;;;;;;;;;26.80;99.90;;;;;;5062425;28;19917;-73
2022/11/13 04:32:57;;;;;;;;;;;26.80;99.90;;;;;;5060885;28;20282;-78
2022/11/13 04:35:24;;;;;;;;;;;26.90;99.90;;;;;;5062151;28;19912;-74
2022/11/13 04:37:51;;;;;;;;;;;27.10;99.90;;;;;;5064488;28;19960;-77
2022/11/13 04:40:17;;;;;;;;;;;27.10;99.90;;;;;;5059531;28;20331;-80
2022/11/13 04:42:50;;;;;;;;;;;27.10;99.90;;;;;;5058419;28;19916;-77
2022/11/13 04:45:18;;;;;;;;;;;27.20;99.90;;;;;;5070425;28;20004;-78
2022/11/13 04:47:45;;;;;;;;;;;27.40;99.90;;;;;;5071570;28;19916;-75
2022/11/13 04:50:11;;;;;;;;;;;27.50;99.90;;;;;;5069456;28;19974;-78
2022/11/13 04:52:38;;;;;;;;;;;27.50;99.90;;;;;;5071114;28;19916;-74
2022/11/13 04:55:05;;;;;;;;;;;27.40;99.90;;;;;;5070247;28;20011;-75
2022/11/13 04:57:32;;;;;;;;;;;27.30;99.90;;;;;;5073866;28;19912;-77
2022/11/13 04:59:59;;;;;;;;;;;27.50;99.90;;;;;;5069803;28;19924;-77
2022/11/13 05:02:26;;;;;;;;;;;27.40;99.90;;;;;;5063415;28;20039;-75
2022/11/13 05:04:52;;;;;;;;;;;27.50;99.90;;;;;;5069870;28;19921;-75
2022/11/13 05:07:19;;;;;;;;;;;27.40;99.90;;;;;;5074030;28;19991;-75
2022/11/13 05:09:46;;;;;;;;;;;27.50;99.90;;;;;;5070062;28;20286;-76
2022/11/13 05:12:12;;;;;;;;;;;27.50;99.90;;;;;;5071223;28;20007;-78
2022/11/13 05:14:40;;;;;;;;;;;27.40;99.90;;;;;;5070205;28;19994;-75
2022/11/13 05:17:08;;;;;;;;;;;27.20;99.90;;;;;;5066299;28;19970;-78
2022/11/13 05:19:35;;;;;;;;;;;27.20;99.90;;;;;;5064876;28;19912;-74
2022/11/13 05:22:02;;;;;;;;;;;27.10;99.90;;;;;;5045920;28;20274;-74
2022/11/13 05:24:29;;;;;;;;;;;26.90;99.90;;;;;;5064229;28;19916;-75
2022/11/13 05:26:55;;;;;;;;;;;26.70;99.90;;;;;;5066745;28;19912;-78
2022/11/13 05:29:22;;;;;;;;;;;26.60;99.90;;;;;;5069692;28;19916;-74
2022/11/13 05:31:49;;;;;;;;;;;26.50;99.90;;;;;;5074514;28;19912;-79
2022/11/13 05:34:16;;;;;;;;;;;26.40;99.90;;;;;;5070892;28;20019;-74
2022/11/13 05:36:42;;;;;;;;;;;26.40;99.90;;;;;;5072217;28;19913;-78
2022/11/13 05:39:09;;;;;;;;;;;26.20;99.90;;;;;;5073612;28;19916;-79
2022/11/13 05:41:35;;;;;;;;;;;26.10;99.90;;;;;;5068019;28;19967;-76
2022/11/13 05:44:02;;;;;;;;;;;26.10;99.90;;;;;;5071555;28;19916;-77
2022/11/13 05:46:29;;;;;;;;;;;26.10;99.90;;;;;;5069851;28;19912;-78
2022/11/13 05:48:57;;;;;;;;;;;26.10;99.90;;;;;;5061164;28;19916;-78
2022/11/13 05:51:25;;;;;;;;;;;26.10;99.90;;;;;;5066722;28;20290;-77
2022/11/13 05:53:52;;;;;;;;;;;26.10;99.90;;;;;;5072657;28;19909;-77
2022/11/13 05:56:21;;;;;;;;;;;26.00;99.90;;;;;;5068801;28;19962;-75
2022/11/13 05:58:48;;;;;;;;;;;26.10;99.90;;;;;;5071928;28;19912;-77
2022/11/13 06:01:20;;;;;;;;;;;26.10;99.90;;;;;;5068084;28;20439;-77
2022/11/13 06:03:47;;;;;;;;;;;26.10;99.90;;;;;;5071104;28;19917;-76
2022/11/13 06:06:15;;;;;;;;;;;26.10;99.90;;;;;;5070995;28;19919;-78
2022/11/13 06:08:42;;;;;;;;;;;25.90;99.90;;;;;;5067005;28;20364;-79
2022/11/13 06:11:10;;;;;;;;;;;25.80;99.90;;;;;;5064658;28;19917;-77
2022/11/13 06:13:37;;;;;;;;;;;25.70;99.90;;;;;;5065233;28;20024;-77
2022/11/13 06:16:07;;;;;;;;;;;25.60;99.90;;;;;;5066848;28;19958;-77
2022/11/13 06:18:34;;;;;;;;;;;25.60;99.90;;;;;;5066084;28;19912;-76
2022/11/13 06:21:05;;;;;;;;;;;25.70;99.90;;;;;;5066466;28;19943;-73
2022/11/13 06:23:33;;;;;;;;;;;25.70;99.90;;;;;;5064093;28;20054;-79
2022/11/13 06:26:01;;;;;;;;;;;25.60;99.90;;;;;;5069940;28;20277;-77
2022/11/13 06:28:27;;;;;;;;;;;25.60;99.90;;;;;;5066457;28;19947;-80
2022/11/13 06:30:54;;;;;;;;;;;25.50;99.90;;;;;;5069361;28;20274;-78
2022/11/13 06:33:21;;;;;;;;;;;25.40;99.90;;;;;;5076120;28;19966;-75
2022/11/13 06:35:48;;;;;;;;;;;25.30;99.90;;;;;;5069539;28;19965;-77
2022/11/13 06:38:14;;;;;;;;;;;25.30;99.90;;;;;;5064796;28;19939;-75
2022/11/13 06:40:41;;;;;;;;;;;25.20;99.90;;;;;;5069547;28;20336;-75
2022/11/13 06:43:08;;;;;;;;;;;25.20;99.90;;;;;;5065742;28;20381;-74
2022/11/13 06:45:34;;;;;;;;;;;25.20;99.90;;;;;;5069464;28;19916;-77
2022/11/13 06:48:01;;;;;;;;;;;25.10;99.90;;;;;;5068238;28;19919;-73
2022/11/13 06:50:28;;;;;;;;;;;25.10;99.90;;;;;;5069823;28;19912;-74
2022/11/13 06:52:55;;;;;;;;;;;25.10;99.90;;;;;;5058723;28;19916;-76
2022/11/13 06:55:21;;;;;;;;;;;25.10;99.90;;;;;;5069375;28;20260;-74
2022/11/13 06:57:51;;;;;;;;;;;25.00;99.90;;;;;;5061934;28;19962;-75
2022/11/13 07:00:18;;;;;;;;;;;25.00;99.90;;;;;;5062107;28;19923;-78
2022/11/13 07:02:44;;;;;;;;;;;25.00;99.90;;;;;;5054937;28;19967;-81
2022/11/13 07:05:11;;;;;;;;;;;25.00;99.90;;;;;;5066167;28;19914;-78
2022/11/13 07:07:37;;;;;;;;;;;24.90;99.90;;;;;;5068392;28;19927;-75
2022/11/13 07:10:04;;;;;;;;;;;24.90;99.90;;;;;;5069075;28;19924;-77
2022/11/13 07:12:31;;;;;;;;;;;24.80;99.90;;;;;;5069059;28;19919;-80
2022/11/13 07:14:58;;;;;;;;;;;24.80;99.90;;;;;;5050493;28;19974;-78
2022/11/13 07:17:25;;;;;;;;;;;24.70;99.90;;;;;;5052176;28;19920;-79
2022/11/13 07:19:51;;;;;;;;;;;24.60;99.90;;;;;;5069471;28;19924;-79
2022/11/13 07:22:18;;;;;;;;;;;24.60;99.90;;;;;;5071068;28;19939;-77
2022/11/13 07:24:45;;;;;;;;;;;24.60;99.90;;;;;;5070155;28;19924;-78
2022/11/13 07:27:11;;;;;;;;;;;24.50;99.90;;;;;;5044505;28;20023;-78
2022/11/13 07:29:38;;;;;;;;;;;24.50;99.90;;;;;;5066262;28;19923;-78
2022/11/13 07:32:05;;;;;;;;;;;24.40;99.90;;;;;;5068214;28;19920;-77
2022/11/13 07:34:32;;;;;;;;;;;24.40;99.90;;;;;;5066633;28;20001;-77
2022/11/13 07:36:58;;;;;;;;;;;24.30;99.90;;;;;;5065633;28;20374;-79
2022/11/13 07:39:25;;;;;;;;;;;24.30;99.90;;;;;;5066086;28;20003;-79
2022/11/13 07:41:52;;;;;;;;;;;24.20;99.90;;;;;;5063744;28;19990;-80
2022/11/13 07:44:19;;;;;;;;;;;24.20;99.90;;;;;;5071614;28;20271;-78
2022/11/13 07:46:45;;;;;;;;;;;24.20;99.90;;;;;;5068978;28;19919;-78
2022/11/13 07:49:12;;;;;;;;;;;24.20;99.90;;;;;;5071793;28;19924;-78
2022/11/13 07:51:39;;;;;;;;;;;24.10;99.90;;;;;;5070951;28;19912;-80
2022/11/13 07:54:06;;;;;;;;;;;24.10;99.90;;;;;;5072222;28;19987;-81
2022/11/13 07:56:32;;;;;;;;;;;24.10;99.90;;;;;;5074994;28;20011;-78
2022/11/13 07:58:59;;;;;;;;;;;24.10;99.90;;;;;;5066133;28;20714;-79
2022/11/13 08:01:26;;;;;;;;;;;24.00;99.90;;;;;;5070662;28;19970;-79
2022/11/13 08:03:52;;;;;;;;;;;24.00;99.90;;;;;;5067549;28;19924;-82
2022/11/13 08:06:19;;;;;;;;;;;23.90;99.90;;;;;;5066634;28;20014;-80
2022/11/13 08:08:48;;;;;;;;;;;23.90;99.90;;;;;;5055059;28;19974;-77
2022/11/13 08:11:15;;;;;;;;;;;23.80;99.90;;;;;;5063354;28;19935;-81
2022/11/13 08:13:42;;;;;;;;;;;23.80;99.90;;;;;;5064203;28;19917;-79
2022/11/13 08:16:08;;;;;;;;;;;23.60;99.90;;;;;;5066409;28;20377;-80
2022/11/13 08:18:35;;;;;;;;;;;23.50;99.90;;;;;;5069708;28;19958;-80
2022/11/13 08:21:02;;;;;;;;;;;23.40;99.90;;;;;;5070689;28;19931;-76
2022/11/13 08:23:29;;;;;;;;;;;23.20;99.90;;;;;;5070381;28;20457;-78
2022/11/13 08:25:56;;;;;;;;;;;23.00;99.90;;;;;;5064913;28;19912;-78
2022/11/13 08:28:23;;;;;;;;;;;22.90;99.90;;;;;;5066113;28;20281;-78
2022/11/13 08:30:49;;;;;;;;;;;22.70;99.90;;;;;;5065968;28;19935;-78
2022/11/13 08:33:16;;;;;;;;;;;22.60;99.90;;;;;;5071455;28;19920;-76
2022/11/13 08:35:50;;;;;;;;;;;22.60;99.90;;;;;;5069043;28;19912;-76
2022/11/13 08:38:17;;;;;;;;;;;22.50;99.90;;;;;;5069198;28;20282;-77
2022/11/13 08:40:44;;;;;;;;;;;22.40;99.90;;;;;;5068304;28;19928;-75
2022/11/13 08:43:10;;;;;;;;;;;22.30;99.90;;;;;;5075131;28;20026;-77
2022/11/13 08:45:37;;;;;;;;;;;22.30;99.90;;;;;;5070213;28;19924;-78
2022/11/13 08:48:04;;;;;;;;;;;22.20;99.90;;;;;;5067655;28;19978;-79
2022/11/13 08:50:32;;;;;;;;;;;22.20;99.90;;;;;;5072563;28;19917;-78
2022/11/13 08:52:59;;;;;;;;;;;22.20;99.90;;;;;;5073232;28;19916;-77
2022/11/13 08:55:26;;;;;;;;;;;22.20;99.90;;;;;;5070541;28;19927;-78
2022/11/13 08:57:53;;;;;;;;;;;22.10;99.90;;;;;;5069197;28;19912;-79
2022/11/13 09:00:20;;;;;;;;;;;22.10;99.90;;;;;;5073613;28;20011;-76
2022/11/13 09:02:47;;;;;;;;;;;22.10;99.90;;;;;;5072324;28;19973;-77
2022/11/13 09:05:14;;;;;;;;;;;22.00;99.90;;;;;;5070541;28;19912;-76
2022/11/13 09:07:40;;;;;;;;;;;22.00;99.90;;;;;;5073420;28;19912;-78
2022/11/13 09:10:07;;;;;;;;;;;22.00;99.90;;;;;;5077504;28;19927;-77
2022/11/13 09:12:34;;;;;;;;;;;22.00;99.90;;;;;;5069247;28;19992;-78
2022/11/13 09:15:00;;;;;;;;;;;22.00;99.90;;;;;;5063168;28;19918;-76
2022/11/13 09:17:27;;;;;;;;;;;22.00;99.90;;;;;;5066295;28;20558;-78
2022/11/13 09:19:55;;;;;;;;;;;21.90;99.90;;;;;;5071882;28;19917;-77
2022/11/13 09:22:22;;;;;;;;;;;21.90;99.90;;;;;;5067450;28;19923;-78
2022/11/13 09:24:49;;;;;;;;;;;21.90;99.90;;;;;;5069975;28;19920;-78
2022/11/13 09:27:15;;;;;;;;;;;21.90;99.90;;;;;;5071482;28;20408;-78
2022/11/13 09:29:42;;;;;;;;;;;21.90;99.90;;;;;;5078014;28;20424;-78
2022/11/13 09:32:09;;;;;;;;;;;21.90;99.90;;;;;;5064898;28;19913;-77
2022/11/13 09:34:35;;;;;;;;;;;21.90;99.90;;;;;;5071520;28;19926;-80
2022/11/13 09:37:02;;;;;;;;;;;21.80;99.90;;;;;;5073690;28;19912;-77
2022/11/13 09:39:29;;;;;;;;;;;21.90;99.90;;;;;;5070388;28;20339;-76
2022/11/13 09:41:58;;;;;;;;;;;21.90;99.90;;;;;;5064071;28;19924;-78
2022/11/13 09:44:31;;;;;;;;;;;21.90;99.90;;;;;;5072234;28;19920;-78
2022/11/13 09:47:08;;;;;;;;;;;22.00;99.90;;;;;;5065951;28;19932;-78
2022/11/13 09:49:37;;;;;;;;;;;21.90;99.90;;;;;;5070530;28;19920;-75
2022/11/13 09:52:15;;;;;;;;;;;22.00;99.90;;;;;;5065603;28;20333;-77
2022/11/13 09:54:42;;;;;;;;;;;22.00;99.90;;;;;;5069065;28;20294;-77
2022/11/13 09:57:20;;;;;;;;;;;22.00;99.90;;;;;;5067601;28;19946;-75
2022/11/13 09:59:51;;;;;;;;;;;21.90;99.90;;;;;;5068731;28;19927;-76
2022/11/13 10:02:21;;;;;;;;;;;21.70;99.90;;;;;;5071180;28;19993;-77
2022/11/13 10:05:02;;;;;;;;;;;21.60;99.90;;;;;;5066714;28;19920;-75
2022/11/13 10:07:29;;;;;;;;;;;21.50;99.90;;;;;;5068082;28;19948;-75
2022/11/13 10:10:05;;;;;;;;;;;21.40;99.90;;;;;;5063771;28;19958;-76
2022/11/13 10:12:32;;;;;;;;;;;21.30;99.90;;;;;;5072591;28;19916;-78
2022/11/13 10:15:00;;;;;;;;;;;21.30;99.90;;;;;;5070198;28;20029;-77
2022/11/13 10:17:37;;;;;;;;;;;21.30;99.90;;;;;;5070688;28;19929;-77
2022/11/13 10:20:08;;;;;;;;;;;21.20;99.90;;;;;;5062224;28;19976;-79
2022/11/13 10:23:07;;;;;;;;;;;21.20;99.90;;;;;;5068988;28;19969;-78
2022/11/13 10:25:35;;;;;;;;;;;21.20;99.90;;;;;;5020726;28;19913;-76
2022/11/13 10:28:09;;;;;;;;;;;21.20;99.90;;;;;;5069090;28;19923;-76
2022/11/13 10:30:36;;;;;;;;;;;21.20;99.90;;;;;;5070885;28;19917;-78
2022/11/13 10:33:07;;;;;;;;;;;21.20;99.90;;;;;;5079389;28;19912;-79
2022/11/13 10:35:37;;;;;;;;;;;21.20;99.90;;;;;;5069060;28;19951;-78
2022/11/13 10:38:10;;;;;;;;;;;21.30;99.90;;;;;;5059719;28;19916;-77
2022/11/13 10:40:38;;;;;;;;;;;21.30;99.90;;;;;;5061005;28;19946;-78
2022/11/13 10:43:06;;;;;;;;;;;21.30;99.90;;;;;;5068950;28;19908;-77
2022/11/13 10:45:33;;;;;;;;;;;21.30;99.90;;;;;;5061990;28;19920;-77
2022/11/13 10:47:59;;;;;;;;;;;21.30;99.90;;;;;;5060484;28;19999;-78
2022/11/13 10:50:28;;;;;;;;;;;21.30;99.90;;;;;;5066854;28;19913;-79
2022/11/13 10:52:55;;;;;;;;;;;21.40;99.90;;;;;;5069846;28;19919;-79
2022/11/13 10:55:24;;;;;;;;;;;21.30;99.90;;;;;;5073022;28;19919;-82
2022/11/13 10:57:55;;;;;;;;;;;21.30;99.90;;;;;;5080350;28;19935;-80
2022/11/13 11:00:24;;;;;;;;;;;21.30;99.90;;;;;;5080476;28;19926;-79
2022/11/13 11:02:50;;;;;;;;;;;21.40;99.90;;;;;;5065034;28;19940;-81
2022/11/13 11:05:18;;;;;;;;;;;21.40;99.90;;;;;;5067963;28;19931;-84
2022/11/13 11:07:45;;;;;;;;;;;21.30;99.90;;;;;;5071273;28;20338;-87
2022/11/13 11:10:27;;;;;;;;;;;21.20;99.90;;;;;;5067550;28;19944;-84
2022/11/13 11:13:00;;;;;;;;;;;21.20;99.90;;;;;;5062326;28;19924;-86
2022/11/13 11:15:30;;;;;;;;;;;21.10;99.90;;;;;;5056488;28;19920;-85
2022/11/13 11:18:04;;;;;;;;;;;21.10;99.90;;;;;;5053412;28;20468;-82
2022/11/13 11:21:03;;;;;;;;;;;21.10;99.90;;;;;;5056402;28;19924;-81
2022/11/13 11:23:46;;;;;;;;;;;21.10;99.90;;;;;;5036557;28;20243;-82
2022/11/13 11:26:20;;;;;;;;;;;21.10;99.90;;;;;;5064300;28;20202;-84
2022/11/13 11:28:49;;;;;;;;;;;21.10;99.90;;;;;;5065698;28;19920;-82
2022/11/13 11:31:22;;;;;;;;;;;21.10;99.90;;;;;;5044042;28;19922;-80
2022/11/13 11:33:58;;;;;;;;;;;21.10;99.90;;;;;;5061078;28;20031;-77
2022/11/13 11:36:30;;;;;;;;;;;21.00;99.90;;;;;;5062599;28;20275;-79
2022/11/13 11:39:00;;;;;;;;;;;21.00;99.90;;;;;;5051737;28;20462;-78
2022/11/13 11:41:32;;;;;;;;;;;21.00;99.90;;;;;;5064301;28;20160;-80
2022/11/13 11:44:00;;;;;;;;;;;21.00;99.90;;;;;;5070011;28;19938;-77
2022/11/13 11:46:30;;;;;;;;;;;21.00;99.90;;;;;;5063328;28;19974;-78
2022/11/13 11:48:59;;;;;;;;;;;21.00;99.90;;;;;;5050673;28;19921;-77
2022/11/13 11:51:30;;;;;;;;;;;21.00;99.90;;;;;;5066226;28;19917;-77
2022/11/13 11:53:59;;;;;;;;;;;21.00;99.90;;;;;;5053926;28;19916;-77
2022/11/13 11:56:35;;;;;;;;;;;21.00;99.90;;;;;;5068485;28;19916;-78
2022/11/13 11:59:20;;;;;;;;;;;21.10;99.90;;;;;;5057202;28;19923;-79
2022/11/13 12:01:55;;;;;;;;;;;21.20;99.90;;;;;;5064432;28;19931;-80
2022/11/13 12:04:31;;;;;;;;;;;21.20;99.90;;;;;;5057159;28;20062;-78
2022/11/13 12:07:20;;;;;;;;;;;21.10;99.90;;;;;;5057708;28;19917;-77
2022/11/13 12:09:47;;;;;;;;;;;21.20;99.90;;;;;;5032940;28;19928;-77
2022/11/13 12:12:24;;;;;;;;;;;21.20;99.90;;;;;;5054206;28;19913;-73
2022/11/13 12:15:08;;;;;;;;;;;21.20;99.90;;;;;;5049909;28;19916;-76
2022/11/13 12:17:35;;;;;;;;;;;21.20;99.90;;;;;;5065034;28;19962;-79
2022/11/13 12:20:20;;;;;;;;;;;21.20;99.90;;;;;;5076351;28;20289;-82
2022/11/13 12:23:09;;;;;;;;;;;21.20;99.90;;;;;;5058057;28;19916;-78
2022/11/13 12:25:49;;;;;;;;;;;21.20;99.90;;;;;;5064311;28;19912;-79
2022/11/13 12:28:37;;;;;;;;;;;21.20;99.90;;;;;;5061043;28;19921;-83
2022/11/13 12:31:21;;;;;;;;;;;21.20;99.90;;;;;;5064215;28;19913;-78
2022/11/13 12:34:09;;;;;;;;;;;21.20;99.90;;;;;;5052955;28;19921;-80
2022/11/13 12:36:36;;;;;;;;;;;21.20;99.90;;;;;;5070310;28;19913;-87
2022/11/13 12:39:25;;;;;;;;;;;21.20;99.90;;;;;;5075577;28;19917;-88
2022/11/13 12:41:52;;;;;;;;;;;21.20;99.90;;;;;;5069025;28;19920;-87
2022/11/13 12:44:22;;;;;;;;;;;21.00;99.90;;;;;;5070847;28;21559;-85
2022/11/13 12:46:48;;;;;;;;;;;20.90;99.90;;;;;;5073731;28;19916;-90
2022/11/13 12:49:24;;;;;;;;;;;20.80;99.90;;;;;;5072522;28;19999;-87
2022/11/13 12:51:58;;;;;;;;;;;20.60;99.90;;;;;;5073931;28;19912;-88
2022/11/13 12:54:29;;;;;;;;;;;20.60;99.90;;;;;;5065785;28;20290;-90
2022/11/13 12:57:14;;;;;;;;;;;20.40;99.90;;;;;;5069273;28;19912;-85
2022/11/13 12:59:49;;;;;;;;;;;20.40;99.90;;;;;;5064591;28;19978;-93
2022/11/13 13:02:15;;;;;;;;;;;20.30;99.90;;;;;;5064570;28;19928;-76
2022/11/13 13:04:42;;;;;;;;;;;20.20;99.90;;;;;;5069256;28;20009;-75
2022/11/13 13:07:09;;;;;;;;;;;20.20;99.90;;;;;;5062590;28;20373;-75
2022/11/13 13:09:36;;;;;;;;;;;20.20;99.90;;;;;;5063078;28;19925;-76
2022/11/13 13:12:12;;;;;;;;;;;20.20;99.90;;;;;;5074150;28;19999;-77
2022/11/13 13:14:41;;;;;;;;;;;20.20;99.90;;;;;;5058592;28;19920;-72
2022/11/13 13:17:08;;;;;;;;;;;20.20;99.90;;;;;;5072145;28;19949;-75
2022/11/13 13:19:34;;;;;;;;;;;20.20;99.90;;;;;;5069152;28;19966;-77
2022/11/13 13:22:01;;;;;;;;;;;20.20;99.90;;;;;;5059034;28;20389;-75
2022/11/13 13:24:35;;;;;;;;;;;20.20;99.90;;;;;;5069479;28;19922;-75
2022/11/13 13:27:19;;;;;;;;;;;20.10;99.90;;;;;;5060096;28;20006;-74
2022/11/13 13:29:45;;;;;;;;;;;20.10;99.90;;;;;;5067326;28;19920;-75
2022/11/13 13:32:18;;;;;;;;;;;20.10;99.90;;;;;;5053580;28;19915;-76
2022/11/13 13:34:53;;;;;;;;;;;20.20;99.90;;;;;;5069515;28;19964;-74
2022/11/13 13:37:24;;;;;;;;;;;20.20;99.90;;;;;;5069594;28;19966;-79
2022/11/13 13:39:56;;;;;;;;;;;20.10;99.90;;;;;;5067518;28;20602;-75
2022/11/13 13:42:23;;;;;;;;;;;20.20;99.90;;;;;;5063729;28;19916;-75
2022/11/13 13:44:59;;;;;;;;;;;20.10;99.90;;;;;;5065175;28;19913;-75
2022/11/13 13:47:34;;;;;;;;;;;20.10;99.90;;;;;;5069766;28;19919;-74
2022/11/13 13:50:03;;;;;;;;;;;20.10;99.90;;;;;;5068785;28;19919;-75
2022/11/13 13:52:32;;;;;;;;;;;20.00;99.90;;;;;;5072228;28;19952;-82
2022/11/13 13:55:00;;;;;;;;;;;20.00;99.90;;;;;;5069889;28;19912;-77
2022/11/13 13:57:26;;;;;;;;;;;19.90;99.90;;;;;;5069349;28;19920;-78
2022/11/13 13:59:53;;;;;;;;;;;19.90;99.90;;;;;;5071578;28;19916;-76
2022/11/13 14:02:24;;;;;;;;;;;19.90;99.90;;;;;;5072945;28;19909;-76
2022/11/13 14:04:52;;;;;;;;;;;19.80;99.90;;;;;;5072020;28;19948;-76
2022/11/13 14:07:25;;;;;;;;;;;19.90;99.90;;;;;;5074693;28;19918;-77
2022/11/13 14:10:24;;;;;;;;;;;19.80;99.90;;;;;;5068323;28;20011;-78
2022/11/13 14:12:51;;;;;;;;;;;19.80;99.90;;;;;;5023539;28;20282;-76
2022/11/13 14:15:18;;;;;;;;;;;19.70;99.90;;;;;;5064543;28;19919;-77
2022/11/13 14:17:45;;;;;;;;;;;19.60;99.90;;;;;;5072402;28;19916;-77
2022/11/13 14:20:12;;;;;;;;;;;19.60;99.90;;;;;;5071316;28;19928;-78
2022/11/13 14:22:39;;;;;;;;;;;19.50;99.90;;;;;;5073042;28;19958;-73
2022/11/13 14:25:15;;;;;;;;;;;19.40;99.90;;;;;;5071100;28;19912;-78
2022/11/13 14:27:42;;;;;;;;;;;19.40;99.90;;;;;;5040708;28;20004;-79